Terminal Aerodrome Forecast
Issued by NWS Portland, OR

Home | Current Version | Previous Version | Text Only | Print | Product List | Glossary On
Versions: 1 2 3 4 5 6 7 8 9 10 11 12 13 14 15 16 17 18 19 20 21 22 23 24 25
000
FTUS46 KPQR 231140
TAFSLE
TAF
KSLE 231140Z 2312/2412 16005KT P6SM -RA SCT020 OVC050
      TEMPO 2313/2317 4SM RA OVC020
     FM231800 22010G18KT P6SM VCSH SCT015 BKN025 BKN050
     FM232100 22011KT P6SM BKN050
     FM240800 17011KT P6SM OVC050=

USA.gov is the U.S. government's official web portal to all federal, state and local government web resources and services.